createdAt,value
2024-01-16T00:00:06.608Z,91588.44
2024-01-16T00:01:38.708Z,91590.94
2024-01-16T00:03:10.313Z,91586.22
2024-01-16T00:04:42.201Z,91597.06
2024-01-16T00:06:14.048Z,91590.13
2024-01-16T00:07:45.629Z,91596.09
2024-01-16T00:09:17.218Z,91586.09
2024-01-16T00:10:48.744Z,91587.19
2024-01-16T00:12:20.297Z,91590.03
2024-01-16T00:13:51.929Z,91588.16
2024-01-16T00:15:23.604Z,91581.56
2024-01-16T00:16:55.120Z,91582.34
2024-01-16T00:18:27.013Z,91599.63
2024-01-16T00:20:02.016Z,91588.34
2024-01-16T00:21:33.808Z,91586.94
2024-01-16T00:23:05.394Z,91600.41
2024-01-16T00:24:37.094Z,91597.13
2024-01-16T00:26:08.758Z,91597.59
2024-01-16T00:27:40.498Z,91605.78
2024-01-16T00:29:13.848Z,91602.94
2024-01-16T00:30:45.862Z,91599.81
2024-01-16T00:32:17.764Z,91602.94
2024-01-16T00:33:49.998Z,91592.75
2024-01-16T00:35:21.688Z,91603.44
2024-01-16T00:36:53.462Z,91601.25
2024-01-16T00:38:25.201Z,91604.84
2024-01-16T00:39:57.094Z,91611.13
2024-01-16T00:41:28.742Z,91612.69
2024-01-16T00:43:00.364Z,91612.06
2024-01-16T00:44:32.011Z,91611.59
2024-01-16T00:46:04.147Z,91617.88
2024-01-16T00:47:35.832Z,91610.66
2024-01-16T00:49:09.056Z,91607.34
2024-01-16T00:50:40.818Z,91616.94
2024-01-16T00:52:12.643Z,91610.97
2024-01-16T00:53:44.749Z,91608.75
2024-01-16T00:55:16.472Z,91608.31
2024-01-16T00:56:48.162Z,91601.72
2024-01-16T00:58:19.837Z,91607.84
2024-01-16T00:59:51.554Z,91617.09
2024-01-16T01:01:23.393Z,91614.91
2024-01-16T01:02:55.705Z,91611.78
2024-01-16T01:04:27.461Z,91597.31
2024-01-16T01:05:59.480Z,91600.63
2024-01-16T01:07:31.124Z,91601.72
2024-01-16T01:09:04.293Z,91597.16
2024-01-16T01:10:36.165Z,91600.94
2024-01-16T01:12:07.798Z,91594.16
2024-01-16T01:13:39.626Z,91585.06
2024-01-16T01:15:11.908Z,91597.31
2024-01-16T01:16:43.552Z,91594.97
2024-01-16T01:18:15.324Z,91600.13
2024-01-16T01:19:47.475Z,91594.34
2024-01-16T01:21:19.064Z,91592.44
2024-01-16T01:22:50.864Z,91599.34
2024-01-16T01:24:22.459Z,91589.13
2024-01-16T01:25:54.026Z,91590.09
2024-01-16T01:27:26.322Z,91591.78
2024-01-16T01:28:57.859Z,91604.69
2024-01-16T01:30:29.595Z,91593.69
2024-01-16T01:32:01.308Z,91599.81
2024-01-16T01:33:32.951Z,91604.50
2024-01-16T01:35:04.917Z,91603.88
2024-01-16T01:36:36.490Z,91596.50
2024-01-16T01:38:09.600Z,91600.41
2024-01-16T01:39:41.266Z,91606.41
2024-01-16T01:41:16.114Z,91599.50
2024-01-16T01:42:47.741Z,91600.28
2024-01-16T01:44:19.264Z,91608.59
2024-01-16T01:46:09.593Z,91612.69
2024-01-16T01:47:41.346Z,91606.09
2024-01-16T01:49:13.642Z,91602.97
2024-01-16T01:50:45.401Z,91600.75
2024-01-16T01:52:17.534Z,91593.81
2024-01-16T01:53:50.118Z,91590.72
2024-01-16T01:55:21.727Z,91588.34
2024-01-16T01:56:53.380Z,91589.13
2024-01-16T01:58:25.258Z,91594.78
2024-01-16T01:59:57.012Z,91588.03
2024-01-16T02:01:29.280Z,91601.41
2024-01-16T02:03:01.483Z,91597.94
2024-01-16T02:04:33.381Z,91602.81
2024-01-16T02:06:05.181Z,91604.38
2024-01-16T02:07:36.934Z,91606.75
2024-01-16T02:09:09.118Z,91609.41
2024-01-16T02:10:40.657Z,91604.06
2024-01-16T02:12:12.294Z,91610.97
2024-01-16T02:13:43.972Z,91610.50
2024-01-16T02:15:15.654Z,91620.41
2024-01-16T02:16:47.164Z,91621.97
2024-01-16T02:18:19.110Z,91610.97
2024-01-16T02:19:50.981Z,91617.56
2024-01-16T02:21:22.927Z,91613.63
2024-01-16T02:22:54.566Z,91616.44
2024-01-16T02:24:26.134Z,91613.63
2024-01-16T02:25:57.967Z,91613.31
2024-01-16T02:27:29.543Z,91617.06
2024-01-16T02:29:05.830Z,91608.28
2024-01-16T02:30:37.498Z,91615.81
2024-01-16T02:32:09.394Z,91625.41
2024-01-16T02:33:41.166Z,91626.03
2024-01-16T02:35:12.822Z,91631.06
2024-01-16T02:36:44.715Z,91642.53
2024-01-16T02:38:16.469Z,91651.97
2024-01-16T02:39:48.043Z,91655.13
2024-01-16T02:41:19.803Z,91652.44
2024-01-16T02:42:51.455Z,91653.38
2024-01-16T02:44:23.190Z,91656.53
2024-01-16T02:45:55.202Z,91662.00
2024-01-16T02:47:26.858Z,91667.06
2024-01-16T02:48:58.523Z,91660.44
2024-01-16T02:50:30.112Z,91662.81
2024-01-16T02:52:01.698Z,91669.25
2024-01-16T02:53:33.331Z,91676.16
2024-01-16T02:55:06.067Z,91676.16
2024-01-16T02:56:37.768Z,91675.22
2024-01-16T02:58:09.324Z,91668.47
2024-01-16T02:59:40.955Z,91669.88
2024-01-16T03:01:12.763Z,91675.72
2024-01-16T03:02:45.277Z,91670.84
2024-01-16T03:04:16.913Z,91667.53
2024-01-16T03:05:48.761Z,91667.06
2024-01-16T03:07:20.489Z,91672.88
2024-01-16T03:08:52.591Z,91664.22
2024-01-16T03:10:24.163Z,91678.84
2024-01-16T03:11:55.898Z,91673.81
2024-01-16T03:13:27.543Z,91675.69
2024-01-16T03:14:59.038Z,91680.88
2024-01-16T03:16:31.339Z,91683.72
2024-01-16T03:18:03.107Z,91688.59
2024-01-16T03:19:35.227Z,91693.44
2024-01-16T03:21:07.082Z,91694.22
2024-01-16T03:22:39.232Z,91693.63
2024-01-16T03:24:11.973Z,91698.16
2024-01-16T03:25:43.950Z,91700.38
2024-01-16T03:27:15.565Z,91706.19
2024-01-16T03:28:47.160Z,91706.81
2024-01-16T03:30:18.980Z,91706.31
2024-01-16T03:31:50.747Z,91703.66
2024-01-16T03:33:22.790Z,91697.38
2024-01-16T03:34:54.427Z,91698.31
2024-01-16T03:36:25.972Z,91705.84
2024-01-16T03:37:57.627Z,91707.88
2024-01-16T03:39:29.352Z,91714.31
2024-01-16T03:41:00.876Z,91718.09
2024-01-16T03:42:32.473Z,91718.56
2024-01-16T03:44:04.117Z,91719.66
2024-01-16T03:45:35.706Z,91723.91
2024-01-16T03:47:07.789Z,91726.88
2024-01-16T03:48:39.502Z,91742.72
2024-01-16T03:50:11.547Z,91742.25
2024-01-16T03:51:47.659Z,91734.25
2024-01-16T03:53:19.400Z,91738.50
2024-01-16T03:54:51.153Z,91738.00
2024-01-16T03:56:23.220Z,91744.13
2024-01-16T03:57:54.968Z,91745.25
2024-01-16T03:59:26.601Z,91746.34
2024-01-16T04:00:58.390Z,91743.34
2024-01-16T04:02:30.249Z,91748.22
2024-01-16T04:04:01.907Z,91754.66
2024-01-16T04:05:33.534Z,91757.34
2024-01-16T04:07:05.563Z,91765.03
2024-01-16T04:08:37.150Z,91765.34
2024-01-16T04:10:08.890Z,91770.19
2024-01-16T04:11:40.413Z,91775.84
2024-01-16T04:13:11.987Z,91774.28
2024-01-16T04:14:43.700Z,91777.41
2024-01-16T04:16:15.295Z,91783.25
2024-01-16T04:17:46.896Z,91783.72
2024-01-16T04:19:18.633Z,91798.50
2024-01-16T04:20:51.322Z,91802.44
2024-01-16T04:22:22.968Z,91808.41
2024-01-16T04:23:54.650Z,91805.13
2024-01-16T04:25:26.972Z,91801.81
2024-01-16T04:26:58.548Z,91806.69
2024-01-16T04:28:30.624Z,91814.03
2024-01-16T04:30:02.397Z,91816.38
2024-01-16T04:31:35.049Z,91821.38
2024-01-16T04:33:06.774Z,91826.16
2024-01-16T04:34:38.451Z,91835.72
2024-01-16T04:36:10.916Z,91834.09
2024-01-16T04:37:42.469Z,91832.66
2024-01-16T04:39:14.959Z,91840.59
2024-01-16T04:40:46.679Z,91840.75
2024-01-16T04:42:19.259Z,91847.28
2024-01-16T04:43:54.229Z,91846.63
2024-01-16T04:45:25.820Z,91845.47
2024-01-16T04:46:57.430Z,91849.03
2024-01-16T04:48:29.018Z,91850.44
2024-01-16T04:50:00.598Z,91849.16
2024-01-16T04:51:32.212Z,91860.91
2024-01-16T04:53:03.865Z,91862.63
2024-01-16T04:54:35.385Z,91866.66
2024-01-16T04:56:06.965Z,91872.00
2024-01-16T04:57:38.614Z,91874.97
2024-01-16T04:59:10.194Z,91867.69
2024-01-16T05:00:41.797Z,91867.69
2024-01-16T05:02:15.643Z,91870.94
2024-01-16T05:03:47.394Z,91876.28
2024-01-16T05:05:19.025Z,91877.66
2024-01-16T05:06:51.949Z,91883.13
2024-01-16T05:08:24.908Z,91890.03
2024-01-16T05:09:56.962Z,91891.91
2024-01-16T05:11:28.654Z,91899.41
2024-01-16T05:13:00.278Z,91901.88
2024-01-16T05:14:32.069Z,91903.88
2024-01-16T05:16:04.319Z,91902.69
2024-01-16T05:17:35.995Z,91912.38
2024-01-16T05:19:07.675Z,91908.22
2024-01-16T05:20:39.419Z,91902.00
2024-01-16T05:22:11.688Z,91916.69
2024-01-16T05:23:43.247Z,91929.81
2024-01-16T05:25:14.976Z,91950.03
2024-01-16T05:26:46.586Z,91964.94
2024-01-16T05:28:18.141Z,91955.38
2024-01-16T05:29:49.875Z,91958.72
2024-01-16T05:31:21.957Z,91955.56
2024-01-16T05:32:54.395Z,91959.59
2024-01-16T05:34:27.168Z,91966.03
2024-01-16T05:35:59.019Z,91965.84
2024-01-16T05:37:30.873Z,91963.25
2024-01-16T05:39:03.118Z,91963.03
2024-01-16T05:40:34.688Z,91963.03
2024-01-16T05:42:06.511Z,91970.25
2024-01-16T05:43:38.357Z,91972.69
2024-01-16T05:45:10.172Z,91974.16
2024-01-16T05:46:42.325Z,91995.25
2024-01-16T05:48:13.971Z,91994.97
2024-01-16T05:49:46.246Z,91997.63
2024-01-16T05:51:18.152Z,92002.75
2024-01-16T05:52:50.214Z,92015.53
2024-01-16T05:54:21.781Z,92019.28
2024-01-16T05:55:55.067Z,92022.75
2024-01-16T05:57:28.848Z,92016.34
2024-01-16T05:59:00.809Z,92033.09
2024-01-16T06:00:34.711Z,92040.56
2024-01-16T06:02:06.763Z,92041.97
2024-01-16T06:03:38.361Z,92049.53
2024-01-16T06:05:10.074Z,92054.66
2024-01-16T06:06:45.883Z,92051.50
2024-01-16T06:08:17.769Z,92061.91
2024-01-16T06:09:49.507Z,92059.81
2024-01-16T06:11:30.545Z,92066.81
2024-01-16T06:13:02.088Z,92084.44
2024-01-16T06:14:34.426Z,92084.22
2024-01-16T06:16:11.719Z,92092.56
2024-01-16T06:17:45.611Z,92100.81
2024-01-16T06:19:17.704Z,92111.25
2024-01-16T06:20:50.127Z,92110.44
2024-01-16T06:22:21.922Z,92107.78
2024-01-16T06:23:53.696Z,92110.03
2024-01-16T06:25:25.525Z,92119.16
2024-01-16T06:26:57.348Z,92123.03
2024-01-16T06:28:29.395Z,92133.72
2024-01-16T06:30:01.747Z,92143.13
2024-01-16T06:31:33.787Z,92141.06
2024-01-16T06:33:06.359Z,92145.94
2024-01-16T06:34:38.188Z,92156.84
2024-01-16T06:36:10.136Z,92159.50
2024-01-16T06:37:41.792Z,92161.38
2024-01-16T06:39:15.200Z,92171.00
2024-01-16T06:40:47.093Z,92176.31
2024-01-16T06:42:18.977Z,92174.78
2024-01-16T06:43:50.813Z,92178.78
2024-01-16T06:45:23.023Z,92188.69
2024-01-16T06:46:54.818Z,92184.47
2024-01-16T06:48:26.546Z,92196.69
2024-01-16T06:49:58.750Z,92203.91
2024-01-16T06:51:30.529Z,92211.41
2024-01-16T06:53:03.837Z,92211.13
2024-01-16T06:54:35.617Z,92215.44
2024-01-16T06:56:08.059Z,92216.50
2024-01-16T06:57:39.837Z,92225.53
2024-01-16T06:59:12.476Z,92221.22
2024-01-16T07:00:44.529Z,92223.88
2024-01-16T07:02:16.484Z,92234.25
2024-01-16T07:03:51.386Z,92239.00
2024-01-16T07:05:23.677Z,92230.72
2024-01-16T07:06:55.497Z,92231.22
2024-01-16T07:08:27.220Z,92233.88
2024-01-16T07:09:58.987Z,92242.59
2024-01-16T07:11:30.786Z,92241.25
2024-01-16T07:13:05.969Z,92255.03
2024-01-16T07:14:39.403Z,92247.06
2024-01-16T07:16:12.288Z,92243.63
2024-01-16T07:17:44.562Z,92258.00
2024-01-16T07:19:16.392Z,92278.22
2024-01-16T07:20:48.353Z,92285.66
2024-01-16T07:22:20.278Z,92292.91
2024-01-16T07:23:52.057Z,92301.50
2024-01-16T07:25:23.938Z,92301.31
2024-01-16T07:26:56.151Z,92300.84
2024-01-16T07:28:28.059Z,92309.63
2024-01-16T07:30:00.612Z,92316.00
2024-01-16T07:31:32.956Z,92321.81
2024-01-16T07:33:05.552Z,92322.34
2024-01-16T07:34:37.282Z,92321.25
2024-01-16T07:36:09.688Z,92317.50
2024-01-16T07:37:41.516Z,92321.97
2024-01-16T07:39:13.446Z,92332.84
2024-01-16T07:40:45.027Z,92333.59
2024-01-16T07:42:16.818Z,92338.31
2024-01-16T07:43:50.172Z,92342.78
2024-01-16T07:45:22.014Z,92344.34
2024-01-16T07:46:56.427Z,92339.03
2024-01-16T07:48:28.258Z,92343.38
2024-01-16T07:50:00.953Z,92347.13
2024-01-16T07:51:32.567Z,92354.84
2024-01-16T07:53:04.276Z,92362.31
2024-01-16T07:54:36.583Z,92374.78
2024-01-16T07:56:08.727Z,92381.44
2024-01-16T07:57:40.310Z,92379.59
2024-01-16T07:59:12.153Z,92386.50
2024-01-16T08:00:44.335Z,92390.22
2024-01-16T08:02:16.778Z,92397.66
2024-01-16T08:03:48.779Z,92398.72
2024-01-16T08:05:23.212Z,92397.13
2024-01-16T08:06:55.443Z,92397.44
2024-01-16T08:08:27.368Z,92397.44
2024-01-16T08:09:59.353Z,92396.63
2024-01-16T08:11:32.818Z,92402.19
2024-01-16T08:13:04.902Z,92400.03
2024-01-16T08:14:36.521Z,92402.94
2024-01-16T08:16:11.567Z,92415.16
2024-01-16T08:17:44.355Z,92420.22
2024-01-16T08:19:16.325Z,92430.28
2024-01-16T08:20:48.359Z,92431.31
2024-01-16T08:22:20.579Z,92438.75
2024-01-16T08:23:52.452Z,92438.53
2024-01-16T08:25:24.147Z,92439.59
2024-01-16T08:26:58.658Z,92443.06
2024-01-16T08:28:30.368Z,92457.41
2024-01-16T08:30:02.134Z,92454.22
2024-01-16T08:31:33.643Z,92457.41
2024-01-16T08:33:05.583Z,92456.09
2024-01-16T08:34:37.489Z,92460.63
2024-01-16T08:36:09.824Z,92468.34
2024-01-16T08:37:41.459Z,92472.84
2024-01-16T08:39:14.747Z,92471.50
2024-01-16T08:40:46.458Z,92472.53
2024-01-16T08:42:19.374Z,92480.50
2024-01-16T08:43:52.508Z,92485.31
2024-01-16T08:45:24.256Z,92499.16
2024-01-16T08:46:56.134Z,92488.56
2024-01-16T08:48:28.085Z,92484.84
2024-01-16T08:50:00.238Z,92484.31
2024-01-16T08:51:32.103Z,92486.97
2024-01-16T08:53:03.928Z,92485.38
2024-01-16T08:54:35.700Z,92494.94
2024-01-16T08:56:10.649Z,92497.63
2024-01-16T08:57:43.014Z,92501.88
2024-01-16T08:59:14.960Z,92501.03
2024-01-16T09:00:47.350Z,92505.00
2024-01-16T09:02:19.289Z,92510.84
2024-01-16T09:03:51.207Z,92510.59
2024-01-16T09:05:26.798Z,92503.91
2024-01-16T09:06:58.653Z,92502.84
2024-01-16T09:08:31.035Z,92508.13
2024-01-16T09:10:02.714Z,92504.16
2024-01-16T09:11:35.084Z,92507.59
2024-01-16T09:13:06.815Z,92508.41
2024-01-16T09:14:38.526Z,92513.16
2024-01-16T09:16:10.801Z,92507.06
2024-01-16T09:17:43.822Z,92512.34
2024-01-16T09:19:15.611Z,92509.94
2024-01-16T09:20:47.994Z,92513.13
2024-01-16T09:22:19.917Z,92516.03
2024-01-16T09:23:52.244Z,92512.84
2024-01-16T09:25:26.161Z,92510.19
2024-01-16T09:26:59.583Z,92520.03
2024-01-16T09:28:31.242Z,92518.16
2024-01-16T09:30:02.971Z,92522.97
2024-01-16T09:31:34.602Z,92531.47
2024-01-16T09:33:08.634Z,92532.78
2024-01-16T09:34:41.241Z,92530.63
2024-01-16T09:36:13.067Z,92532.72
2024-01-16T09:37:45.005Z,92530.06
2024-01-16T09:39:19.342Z,92522.06
2024-01-16T09:40:53.636Z,92516.75
2024-01-16T09:42:25.832Z,92521.50
2024-01-16T09:43:57.806Z,92523.91
2024-01-16T09:45:29.833Z,92529.75
2024-01-16T09:47:01.542Z,92530.81
2024-01-16T09:48:33.766Z,92525.25
2024-01-16T09:50:05.986Z,92523.88
2024-01-16T09:51:37.652Z,92530.78
2024-01-16T09:53:09.212Z,92521.22
2024-01-16T09:54:40.883Z,92527.28
2024-01-16T09:56:16.369Z,92524.88
2024-01-16T09:57:48.145Z,92527.25
2024-01-16T09:59:19.921Z,92537.84
2024-01-16T10:00:52.169Z,92518.94
2024-01-16T10:02:23.876Z,92513.59
2024-01-16T10:03:55.913Z,92510.88
2024-01-16T10:05:27.642Z,92502.06
2024-01-16T10:06:59.319Z,92508.69
2024-01-16T10:08:31.457Z,92521.41
2024-01-16T10:10:03.115Z,92525.66
2024-01-16T10:11:35.650Z,92538.13
2024-01-16T10:13:07.313Z,92539.66
2024-01-16T10:14:40.488Z,92538.06
2024-01-16T10:16:12.079Z,92542.53
2024-01-16T10:17:43.762Z,92539.59
2024-01-16T10:19:15.479Z,92536.13
2024-01-16T10:20:47.212Z,92534.84
2024-01-16T10:22:26.850Z,92534.53
2024-01-16T10:24:01.040Z,92527.06
2024-01-16T10:25:32.716Z,92536.03
2024-01-16T10:27:04.624Z,92537.00
2024-01-16T10:28:36.924Z,92532.66
2024-01-16T10:30:08.905Z,92535.31
2024-01-16T10:31:41.666Z,92537.41
2024-01-16T10:33:16.704Z,92533.34
2024-01-16T10:34:48.765Z,92535.41
2024-01-16T10:36:22.031Z,92529.78
2024-01-16T10:37:54.947Z,92531.66
2024-01-16T10:39:35.572Z,92531.91
2024-01-16T10:41:19.545Z,92530.03
2024-01-16T10:43:00.908Z,92536.09
2024-01-16T10:44:33.455Z,92537.56
2024-01-16T10:46:24.500Z,92534.34
2024-01-16T10:48:04.655Z,92532.19
2024-01-16T10:49:43.150Z,92531.41
2024-01-16T10:51:18.079Z,92527.66
2024-01-16T10:52:53.749Z,92537.25
2024-01-16T10:54:25.339Z,92534.88
2024-01-16T10:55:56.908Z,92540.72
2024-01-16T10:57:28.516Z,92540.91
2024-01-16T10:59:00.139Z,92542.22
2024-01-16T11:00:32.366Z,92540.06
2024-01-16T11:02:04.032Z,92544.63
2024-01-16T11:03:38.455Z,92548.88
2024-01-16T11:05:12.699Z,92551.47
2024-01-16T11:06:44.550Z,92551.66
2024-01-16T11:08:18.470Z,92552.09
2024-01-16T11:09:50.229Z,92541.09
2024-01-16T11:11:21.922Z,92540.75
2024-01-16T11:12:53.586Z,92542.75
2024-01-16T11:14:25.580Z,92540.84
2024-01-16T11:15:57.204Z,92539.69
2024-01-16T11:17:30.540Z,92529.31
2024-01-16T11:20:55.839Z,92528.56
2024-01-16T11:22:29.819Z,92522.34
2024-01-16T11:24:01.767Z,92530.09
2024-01-16T11:25:36.801Z,92524.22
2024-01-16T11:27:09.409Z,92528.34
2024-01-16T11:28:41.112Z,92529.22
2024-01-16T11:30:13.845Z,92529.31
2024-01-16T11:31:45.653Z,92530.50
2024-01-16T11:33:32.566Z,92530.50
2024-01-16T11:35:05.634Z,92531.72
2024-01-16T11:36:56.622Z,92530.19
2024-01-16T11:38:28.588Z,92530.63
2024-01-16T11:40:18.140Z,92536.38
2024-01-16T11:41:52.790Z,92535.13
2024-01-16T11:43:35.411Z,92542.59
2024-01-16T11:45:08.679Z,92525.38
2024-01-16T11:47:16.055Z,92533.66
2024-01-16T11:48:52.026Z,92530.34
2024-01-16T11:50:30.573Z,92523.69
2024-01-16T11:52:03.552Z,92529.34
2024-01-16T11:53:37.698Z,92533.56
2024-01-16T11:55:34.196Z,92535.25
2024-01-16T11:57:24.452Z,92544.06
2024-01-16T11:58:56.128Z,92549.63
2024-01-16T12:00:27.775Z,92550.72
2024-01-16T12:02:01.139Z,92564.81
2024-01-16T12:03:35.678Z,92564.06
2024-01-16T12:05:08.348Z,92562.31
2024-01-16T12:06:41.704Z,92560.44
2024-01-16T12:08:15.097Z,92565.22
2024-01-16T12:09:46.634Z,92559.47
2024-01-16T12:11:22.590Z,92558.97
2024-01-16T12:13:01.275Z,92561.47
2024-01-16T12:14:34.795Z,92560.84
2024-01-16T12:16:06.626Z,92578.91
2024-01-16T12:17:39.139Z,92566.41
2024-01-16T12:19:11.334Z,92576.78
2024-01-16T12:20:43.192Z,92574.91
2024-01-16T12:22:14.903Z,92575.66
2024-01-16T12:23:53.051Z,92568.66
2024-01-16T12:26:00.349Z,92566.88
2024-01-16T12:27:24.636Z,92563.56
2024-01-16T12:28:59.796Z,92574.13
2024-01-16T12:30:35.670Z,92568.59
2024-01-16T12:32:13.248Z,92566.91
2024-01-16T12:33:51.895Z,92556.72
2024-01-16T12:35:30.089Z,92567.41
2024-01-16T12:37:08.156Z,92576.53
2024-01-16T12:38:40.828Z,92574.88
2024-01-16T12:40:15.861Z,92570.22
2024-01-16T12:41:47.933Z,92576.06
2024-01-16T12:43:19.741Z,92578.16
2024-01-16T12:44:51.472Z,92572.53
2024-01-16T12:46:23.048Z,92578.34
2024-01-16T12:47:55.201Z,92573.00
2024-01-16T12:49:26.973Z,92571.34
2024-01-16T12:51:04.719Z,92573.31
2024-01-16T12:52:37.484Z,92570.94
2024-01-16T12:54:16.395Z,92575.19
2024-01-16T12:55:48.313Z,92571.63
2024-01-16T12:57:21.319Z,92578.19
2024-01-16T12:58:53.585Z,92572.06
2024-01-16T13:00:25.860Z,92567.50
2024-01-16T13:01:57.438Z,92567.41
2024-01-16T13:03:29.063Z,92558.22
2024-01-16T13:05:01.606Z,92574.66
2024-01-16T13:06:33.676Z,92568.25
2024-01-16T13:08:05.782Z,92567.97
2024-01-16T13:09:38.156Z,92580.25
2024-01-16T13:11:11.510Z,92587.38
2024-01-16T13:12:43.355Z,92580.88
2024-01-16T13:14:15.128Z,92575.69
2024-01-16T13:15:46.734Z,92579.66
2024-01-16T13:17:18.565Z,92584.72
2024-01-16T13:18:50.155Z,92596.28
2024-01-16T13:20:21.783Z,92592.16
2024-01-16T13:21:53.461Z,92587.38
2024-01-16T13:23:28.433Z,92589.53
2024-01-16T13:25:08.576Z,92590.84
2024-01-16T13:26:41.123Z,92588.75
2024-01-16T13:28:13.189Z,92587.66
2024-01-16T13:29:46.003Z,92588.03
2024-01-16T13:31:17.609Z,92593.47
2024-01-16T13:32:49.297Z,92593.66
2024-01-16T13:34:24.421Z,92595.25
2024-01-16T13:35:57.949Z,92588.63
2024-01-16T13:37:29.637Z,92599.59
2024-01-16T13:39:01.277Z,92602.88
2024-01-16T13:40:33.289Z,92602.94
2024-01-16T13:42:08.196Z,92610.06
2024-01-16T13:43:39.968Z,92611.81
2024-01-16T13:45:14.936Z,92618.81
2024-01-16T13:46:57.952Z,92613.84
2024-01-16T13:48:38.481Z,92620.28
2024-01-16T13:50:10.699Z,92620.06
2024-01-16T13:51:44.732Z,92615.78
2024-01-16T13:53:16.434Z,92608.19
2024-01-16T13:54:48.060Z,92605.44
2024-01-16T13:56:29.359Z,92611.59
2024-01-16T13:58:11.921Z,92626.03
2024-01-16T13:59:43.480Z,92623.94
2024-01-16T14:01:15.155Z,92624.03
2024-01-16T14:02:47.781Z,92627.44
2024-01-16T14:04:19.686Z,92635.31
2024-01-16T14:05:51.386Z,92631.47
2024-01-16T14:07:23.529Z,92632.63
2024-01-16T14:08:55.200Z,92631.81
2024-01-16T14:10:26.886Z,92626.56
2024-01-16T14:11:58.465Z,92628.72
2024-01-16T14:13:31.018Z,92625.53
2024-01-16T14:15:05.581Z,92634.44
2024-01-16T14:16:48.137Z,92638.50
2024-01-16T14:18:24.442Z,92636.50
2024-01-16T14:19:56.199Z,92640.50
2024-01-16T14:21:27.794Z,92634.19
2024-01-16T14:23:00.110Z,92647.53
2024-01-16T14:24:31.665Z,92654.44
2024-01-16T14:26:04.347Z,92650.47
2024-01-16T14:27:35.949Z,92648.94
2024-01-16T14:29:07.669Z,92650.00
2024-01-16T14:30:42.143Z,92655.13
2024-01-16T14:32:15.758Z,92642.34
2024-01-16T14:33:47.530Z,92644.22
2024-01-16T14:35:21.047Z,92652.00
2024-01-16T14:36:52.873Z,92649.69
2024-01-16T14:38:24.403Z,92657.16
2024-01-16T14:39:56.090Z,92660.13
2024-01-16T14:41:28.001Z,92661.78
2024-01-16T14:43:00.290Z,92663.13
2024-01-16T14:44:32.041Z,92671.13
2024-01-16T14:46:04.839Z,92669.53
2024-01-16T14:47:36.708Z,92671.69
2024-01-16T14:49:09.055Z,92666.34
2024-01-16T14:50:40.818Z,92674.41
2024-01-16T14:52:13.664Z,92672.06
2024-01-16T14:53:45.729Z,92672.63
2024-01-16T14:55:17.360Z,92676.66
2024-01-16T14:56:50.226Z,92676.66
2024-01-16T14:58:24.229Z,92672.34
2024-01-16T14:59:55.926Z,92680.88
2024-01-16T15:01:28.188Z,92687.50
2024-01-16T15:02:59.970Z,92682.97
2024-01-16T15:04:32.434Z,92686.44
2024-01-16T15:06:06.276Z,92680.03
2024-01-16T15:07:40.465Z,92681.66
2024-01-16T15:09:19.641Z,92680.94
2024-01-16T15:10:51.427Z,92683.91
2024-01-16T15:12:22.968Z,92686.13
2024-01-16T15:13:56.049Z,92685.34
2024-01-16T15:15:27.901Z,92688.28
2024-01-16T15:16:59.635Z,92693.91
2024-01-16T15:18:31.359Z,92700.03
2024-01-16T15:20:04.593Z,92700.53
2024-01-16T15:21:38.135Z,92706.16
2024-01-16T15:23:09.911Z,92704.28
2024-01-16T15:24:41.967Z,92699.22
2024-01-16T15:26:20.205Z,92704.63
2024-01-16T15:27:54.944Z,92703.84
2024-01-16T15:29:30.657Z,92707.63
2024-01-16T15:31:08.889Z,92714.09
2024-01-16T15:32:40.815Z,92715.19
2024-01-16T15:34:15.899Z,92717.88
2024-01-16T15:35:49.078Z,92708.59
2024-01-16T15:37:20.735Z,92715.28
2024-01-16T15:38:52.280Z,92722.50
2024-01-16T15:40:24.499Z,92716.50
2024-01-16T15:41:56.130Z,92721.63
2024-01-16T15:43:27.818Z,92717.94
2024-01-16T15:45:00.068Z,92724.59
2024-01-16T15:46:31.769Z,92714.78
2024-01-16T15:48:03.702Z,92721.47
2024-01-16T15:49:36.768Z,92723.34
2024-01-16T15:51:10.517Z,92709.25
2024-01-16T15:52:42.594Z,92716.16
2024-01-16T15:54:14.154Z,92715.66
2024-01-16T15:55:45.734Z,92713.03
2024-01-16T15:57:17.715Z,92707.69
2024-01-16T15:58:50.612Z,92709.06
2024-01-16T16:00:24.269Z,92708.78
2024-01-16T16:01:55.813Z,92714.91
2024-01-16T16:03:27.616Z,92719.69
2024-01-16T16:04:59.316Z,92719.69
2024-01-16T16:06:30.950Z,92712.25
2024-01-16T16:08:02.888Z,92712.03
2024-01-16T16:09:35.346Z,92718.97
2024-01-16T16:11:07.081Z,92718.16
2024-01-16T16:12:39.069Z,92711.00
2024-01-16T16:14:10.883Z,92724.56
2024-01-16T16:15:42.788Z,92732.53
2024-01-16T16:17:14.377Z,92731.97
2024-01-16T16:18:47.205Z,92726.41
2024-01-16T16:20:20.831Z,92730.34
2024-01-16T16:21:53.910Z,92735.16
2024-01-16T16:23:26.079Z,92727.72
2024-01-16T16:24:58.774Z,92726.41
2024-01-16T16:26:30.481Z,92731.19
2024-01-16T16:28:03.162Z,92730.38
2024-01-16T16:29:34.870Z,92737.28
2024-01-16T16:31:06.579Z,92725.88
2024-01-16T16:32:38.555Z,92730.69
2024-01-16T16:34:16.285Z,92732.03
2024-01-16T16:35:48.528Z,92732.81
2024-01-16T16:37:20.523Z,92733.88
2024-01-16T16:38:52.153Z,92738.69
2024-01-16T16:40:23.954Z,92737.63
2024-01-16T16:41:55.703Z,92737.06
2024-01-16T16:43:27.274Z,92734.94
2024-01-16T16:45:00.416Z,92737.59
2024-01-16T16:46:32.202Z,92736.00
2024-01-16T16:48:04.098Z,92738.91
2024-01-16T16:49:36.584Z,92738.13
2024-01-16T16:51:09.041Z,92741.84
2024-01-16T16:52:40.590Z,92742.09
2024-01-16T16:54:13.224Z,92735.22
2024-01-16T16:55:44.879Z,92741.06
2024-01-16T16:57:16.453Z,92745.03
2024-01-16T16:58:48.747Z,92740.53
2024-01-16T17:00:20.654Z,92744.50
2024-01-16T17:01:53.333Z,92743.19
2024-01-16T17:03:25.046Z,92750.34
2024-01-16T17:04:56.923Z,92746.09
2024-01-16T17:06:28.710Z,92740.75
2024-01-16T17:08:00.351Z,92736.78
2024-01-16T17:09:31.911Z,92735.72
2024-01-16T17:11:05.016Z,92735.72
2024-01-16T17:12:36.620Z,92734.94
2024-01-16T17:14:08.701Z,92741.28
2024-01-16T17:15:40.421Z,92754.56
2024-01-16T17:17:12.369Z,92750.56
2024-01-16T17:18:44.119Z,92747.91
2024-01-16T17:20:15.879Z,92750.56
2024-01-16T17:21:47.605Z,92752.94
2024-01-16T17:23:19.725Z,92752.13
2024-01-16T17:24:51.314Z,92753.97
2024-01-16T17:26:23.372Z,92757.19
2024-01-16T17:27:55.724Z,92759.81
2024-01-16T17:29:27.300Z,92753.97
2024-01-16T17:31:03.226Z,92748.38
2024-01-16T17:32:35.036Z,92747.88
2024-01-16T17:34:07.048Z,92756.06
2024-01-16T17:35:39.247Z,92753.41
2024-01-16T17:37:10.823Z,92754.47
2024-01-16T17:38:43.325Z,92756.34
2024-01-16T17:40:15.036Z,92743.28
2024-01-16T17:41:47.046Z,92747.78
2024-01-16T17:43:19.031Z,92743.56
2024-01-16T17:44:50.814Z,92748.84
2024-01-16T17:46:23.363Z,92747.81
2024-01-16T17:47:54.972Z,92748.59
2024-01-16T17:49:26.790Z,92750.72
2024-01-16T17:50:58.465Z,92756.53
2024-01-16T17:52:32.674Z,92761.03
2024-01-16T17:54:04.892Z,92770.59
2024-01-16T17:55:37.113Z,92770.84
2024-01-16T17:57:09.017Z,92761.81
2024-01-16T17:58:40.758Z,92771.63
2024-01-16T18:00:12.577Z,92775.59
2024-01-16T18:01:44.164Z,92786.19
2024-01-16T18:03:27.817Z,92787.50
2024-01-16T18:05:17.810Z,92775.31
2024-01-16T18:06:50.503Z,92785.66
2024-01-16T18:08:23.761Z,92791.19
2024-01-16T18:09:55.472Z,92787.72
2024-01-16T18:11:27.554Z,92788.00